Terminal Aerodrome Forecast
Issued by NWS Cleveland, OH

Home | Current Version | Previous Version | Text Only | Print | Product List | Glossary On
Versions: 1 2 3 4 5 6 7 8 9 10 11 12 13 14 15 16 17 18 19 20 21 22 23 24 25 26 27
000
FTUS41 KCLE 081459 AAB
TAFCLE
TAF AMD
KCLE 081459Z 0815/0918 25015G25KT 5SM -SHSN OVC030
     FM081800 26020G30KT 5SM -SHSN OVC025
     FM090000 26015G25KT 2SM -SHSN OVC015
     FM090600 27014G22KT 1SM -SHSN SCT008 OVC012=

USA.gov is the U.S. government's official web portal to all federal, state and local government web resources and services.